createdAt,value
2023-06-11T00:00:50.725Z,4.90
2023-06-11T00:01:50.723Z,5.30
2023-06-11T00:02:50.765Z,4.80
2023-06-11T00:03:50.742Z,5.30
2023-06-11T00:04:50.927Z,5.20
2023-06-11T00:05:50.669Z,5.20
2023-06-11T00:06:50.655Z,4.90
2023-06-11T00:07:50.646Z,5.00
2023-06-11T00:08:50.652Z,5.10
2023-06-11T00:09:50.620Z,5.80
2023-06-11T00:10:50.600Z,4.90
2023-06-11T00:11:50.601Z,4.80
2023-06-11T00:12:50.590Z,5.20
2023-06-11T00:13:50.576Z,5.80
2023-06-11T00:14:50.556Z,6.00
2023-06-11T00:15:50.618Z,5.20
2023-06-11T00:16:50.528Z,5.00
2023-06-11T00:17:50.577Z,6.70
2023-06-11T00:18:50.497Z,5.70
2023-06-11T00:19:50.481Z,5.60
2023-06-11T00:20:50.474Z,6.20
2023-06-11T00:21:50.788Z,5.90
2023-06-11T00:22:50.454Z,5.60
2023-06-11T00:23:50.489Z,6.20
2023-06-11T00:24:50.421Z,5.70
2023-06-11T00:25:51.717Z,6.10
2023-06-11T00:26:50.398Z,5.50
2023-06-11T00:27:50.411Z,5.70
2023-06-11T00:28:50.380Z,5.70
2023-06-11T00:29:50.356Z,5.80
2023-06-11T00:30:50.341Z,5.70
2023-06-11T00:31:50.360Z,5.40
2023-06-11T00:32:50.386Z,5.60
2023-06-11T00:33:50.315Z,5.50
2023-06-11T00:34:50.285Z,5.70
2023-06-11T00:35:50.273Z,5.80
2023-06-11T00:36:50.252Z,5.20
2023-06-11T00:37:50.266Z,5.90
2023-06-11T00:38:50.227Z,6.10
2023-06-11T00:39:50.235Z,6.00
2023-06-11T00:40:50.202Z,6.00
2023-06-11T00:41:50.242Z,5.80
2023-06-11T00:42:50.198Z,5.50
2023-06-11T00:43:50.174Z,6.00
2023-06-11T00:44:50.158Z,6.20
2023-06-11T00:45:50.160Z,5.70
2023-06-11T00:46:50.130Z,5.60
2023-06-11T00:47:50.184Z,5.70
2023-06-11T00:48:50.111Z,5.90
2023-06-11T00:49:50.095Z,5.90
2023-06-11T00:50:50.083Z,6.20
2023-06-11T00:51:50.091Z,6.00
2023-06-11T00:52:50.068Z,5.80
2023-06-11T00:53:50.051Z,6.00
2023-06-11T00:54:50.034Z,5.90
2023-06-11T00:55:50.020Z,6.00
2023-06-11T00:56:50.037Z,5.60
2023-06-11T00:57:49.984Z,6.20
2023-06-11T00:58:50.310Z,6.10
2023-06-11T00:59:50.000Z,5.80
2023-06-11T01:00:57.053Z,6.20
2023-06-11T01:01:49.942Z,6.30
2023-06-11T01:02:49.952Z,6.30
2023-06-11T01:03:49.987Z,6.20
2023-06-11T01:04:50.025Z,6.30
2023-06-11T01:05:49.974Z,6.50
2023-06-11T01:06:49.879Z,6.00
2023-06-11T01:07:49.862Z,6.30
2023-06-11T01:08:49.855Z,6.50
2023-06-11T01:09:49.833Z,6.30
2023-06-11T01:10:49.830Z,6.50
2023-06-11T01:11:49.814Z,6.30
2023-06-11T01:12:49.791Z,6.10
2023-06-11T01:13:49.789Z,6.80
2023-06-11T01:14:49.769Z,6.40
2023-06-11T01:15:49.765Z,6.30
2023-06-11T01:16:49.791Z,6.80
2023-06-11T01:17:49.774Z,6.40
2023-06-11T01:18:49.717Z,6.20
2023-06-11T01:19:49.708Z,6.40
2023-06-11T01:20:49.693Z,6.20
2023-06-11T01:21:49.684Z,6.50
2023-06-11T01:22:49.653Z,6.60
2023-06-11T01:23:49.706Z,6.40
2023-06-11T01:24:49.634Z,6.80
2023-06-11T01:25:49.639Z,6.50
2023-06-11T01:26:49.605Z,7.30
2023-06-11T01:27:49.604Z,6.90
2023-06-11T01:28:49.586Z,6.40
2023-06-11T01:29:49.604Z,6.90
2023-06-11T01:30:49.589Z,6.10
2023-06-11T01:31:49.568Z,6.30
2023-06-11T01:32:49.565Z,6.30
2023-06-11T01:33:49.536Z,6.00
2023-06-11T01:34:49.502Z,6.50
2023-06-11T01:35:49.484Z,6.90
2023-06-11T01:36:49.494Z,6.60
2023-06-11T01:37:49.454Z,6.10
2023-06-11T01:38:49.445Z,6.90
2023-06-11T01:39:49.447Z,6.90
2023-06-11T01:40:49.425Z,7.00
2023-06-11T01:41:49.411Z,6.50
2023-06-11T01:42:49.402Z,6.80
2023-06-11T01:43:49.405Z,7.20
2023-06-11T01:44:49.370Z,6.50
2023-06-11T01:45:49.376Z,6.70
2023-06-11T01:46:49.382Z,6.60
2023-06-11T01:47:49.410Z,6.80
2023-06-11T01:48:49.332Z,7.20
2023-06-11T01:49:49.334Z,6.60
2023-06-11T01:50:49.306Z,6.60
2023-06-11T01:51:49.277Z,7.20
2023-06-11T01:52:49.283Z,6.90
2023-06-11T01:53:49.264Z,6.50
2023-06-11T01:54:49.244Z,6.80
2023-06-11T01:55:49.229Z,6.90
2023-06-11T01:56:49.218Z,7.40
2023-06-11T01:57:49.228Z,6.70
2023-06-11T01:58:49.196Z,6.70
2023-06-11T01:59:49.186Z,6.50
2023-06-11T02:00:49.175Z,6.50
2023-06-11T02:01:49.183Z,6.40
2023-06-11T02:02:49.436Z,6.80
2023-06-11T02:03:49.179Z,6.60
2023-06-11T02:04:49.106Z,6.60
2023-06-11T02:05:49.102Z,6.20
2023-06-11T02:06:49.092Z,6.50
2023-06-11T02:07:49.081Z,7.10
2023-06-11T02:08:49.065Z,6.00
2023-06-11T02:09:49.075Z,6.80
2023-06-11T02:10:49.036Z,7.10
2023-06-11T02:11:49.047Z,6.70
2023-06-11T02:12:49.004Z,6.80
2023-06-11T02:13:48.995Z,6.50
2023-06-11T02:14:48.973Z,7.20
2023-06-11T02:15:48.985Z,6.40
2023-06-11T02:16:49.179Z,6.70
2023-06-11T02:17:49.042Z,7.00
2023-06-11T02:18:48.926Z,6.60
2023-06-11T02:19:48.911Z,6.80
2023-06-11T02:20:48.903Z,6.70
2023-06-11T02:21:48.911Z,6.20
2023-06-11T02:22:48.883Z,7.30
2023-06-11T02:23:48.904Z,7.30
2023-06-11T02:24:48.868Z,6.60
2023-06-11T02:25:48.875Z,7.10
2023-06-11T02:26:48.836Z,6.80
2023-06-11T02:27:48.837Z,6.90
2023-06-11T02:28:48.804Z,6.40
2023-06-11T02:29:48.807Z,6.40
2023-06-11T02:30:48.777Z,6.90
2023-06-11T02:31:48.812Z,7.70
2023-06-11T02:32:48.829Z,6.60
2023-06-11T02:33:48.736Z,6.70
2023-06-11T02:34:48.716Z,7.30
2023-06-11T02:35:48.726Z,6.90
2023-06-11T02:36:48.701Z,6.80
2023-06-11T02:37:48.688Z,6.90
2023-06-11T02:38:48.667Z,7.10
2023-06-11T02:39:48.676Z,6.50
2023-06-11T02:40:48.666Z,6.50
2023-06-11T02:41:48.633Z,7.10
2023-06-11T02:42:48.620Z,6.80
2023-06-11T02:43:48.611Z,7.20
2023-06-11T02:44:48.609Z,7.50
2023-06-11T02:45:48.632Z,8.70
2023-06-11T02:46:48.567Z,7.10
2023-06-11T02:47:48.603Z,6.90
2023-06-11T02:48:48.554Z,6.70
2023-06-11T02:49:48.555Z,7.60
2023-06-11T02:50:48.523Z,7.10
2023-06-11T02:51:48.518Z,7.80
2023-06-11T02:52:48.501Z,7.30
2023-06-11T02:53:48.485Z,6.80
2023-06-11T02:54:48.462Z,7.30
2023-06-11T02:55:48.459Z,7.10
2023-06-11T02:56:48.433Z,7.30
2023-06-11T02:57:48.436Z,7.20
2023-06-11T02:58:48.438Z,7.10
2023-06-11T02:59:48.423Z,6.80
2023-06-11T03:00:48.380Z,7.00
2023-06-11T03:01:48.534Z,7.20
2023-06-11T03:02:48.406Z,7.10
2023-06-11T03:03:48.401Z,7.10
2023-06-11T03:04:48.333Z,7.10
2023-06-11T03:05:48.328Z,7.50
2023-06-11T03:06:48.331Z,8.00
2023-06-11T03:07:48.302Z,7.20
2023-06-11T03:08:48.287Z,7.90
2023-06-11T03:09:48.264Z,7.50
2023-06-11T03:10:48.270Z,7.00
2023-06-11T03:11:48.253Z,7.50
2023-06-11T03:12:48.230Z,7.60
2023-06-11T03:13:48.235Z,7.80
2023-06-11T03:14:48.218Z,7.40
2023-06-11T03:15:48.210Z,7.70
2023-06-11T03:16:48.175Z,7.30
2023-06-11T03:17:48.206Z,7.70
2023-06-11T03:18:48.166Z,7.90
2023-06-11T03:19:48.158Z,8.40
2023-06-11T03:20:48.129Z,8.10
2023-06-11T03:21:48.122Z,8.00
2023-06-11T03:22:48.123Z,7.70
2023-06-11T03:23:48.117Z,8.60
2023-06-11T03:24:48.068Z,8.20
2023-06-11T03:25:48.069Z,7.60
2023-06-11T03:26:48.059Z,7.30
2023-06-11T03:27:48.068Z,7.60
2023-06-11T03:28:48.039Z,7.70
2023-06-11T03:29:48.016Z,9.40
2023-06-11T03:30:47.988Z,8.40
2023-06-11T03:31:48.127Z,8.10
2023-06-11T03:32:48.066Z,8.20
2023-06-11T03:33:47.953Z,8.30
2023-06-11T03:34:47.944Z,8.10
2023-06-11T03:35:47.926Z,8.60
2023-06-11T03:36:47.934Z,8.50
2023-06-11T03:37:47.908Z,8.60
2023-06-11T03:38:47.889Z,8.60
2023-06-11T03:39:47.879Z,8.00
2023-06-11T03:40:47.856Z,7.80
2023-06-11T03:41:47.867Z,8.40
2023-06-11T03:42:47.840Z,8.40
2023-06-11T03:43:47.830Z,8.40
2023-06-11T03:44:47.824Z,8.40
2023-06-11T03:45:47.810Z,8.60
2023-06-11T03:46:47.854Z,8.30
2023-06-11T03:47:47.822Z,8.30
2023-06-11T03:48:47.779Z,8.60
2023-06-11T03:49:47.765Z,8.50
2023-06-11T04:03:15.760Z,8.80
2023-06-11T04:04:15.650Z,9.00
2023-06-11T04:05:15.612Z,9.50
2023-06-11T04:06:15.584Z,8.90
2023-06-11T04:07:15.572Z,9.80
2023-06-11T04:08:15.558Z,8.90
2023-06-11T04:09:15.546Z,8.70
2023-06-11T04:10:15.584Z,8.80
2023-06-11T04:11:15.548Z,8.80
2023-06-11T04:12:15.509Z,8.20
2023-06-11T04:13:15.501Z,9.20
2023-06-11T04:14:15.479Z,8.50
2023-06-11T04:15:15.494Z,8.80
2023-06-11T04:16:23.558Z,8.70
2023-06-11T04:17:15.553Z,9.10
2023-06-11T04:18:15.485Z,9.10
2023-06-11T04:19:15.434Z,8.90
2023-06-11T04:20:15.418Z,9.50
2023-06-11T04:21:15.392Z,8.20
2023-06-11T04:22:15.377Z,9.00
2023-06-11T04:23:15.376Z,8.90
2023-06-11T04:24:15.425Z,8.80
2023-06-11T04:25:15.344Z,9.40
2023-06-11T04:26:15.322Z,8.60
2023-06-11T04:27:15.308Z,8.90
2023-06-11T04:28:15.295Z,9.40
2023-06-11T04:29:15.291Z,9.00
2023-06-11T04:30:15.283Z,9.10
2023-06-11T04:31:15.277Z,8.80
2023-06-11T04:32:15.250Z,10.10
2023-06-11T04:33:15.232Z,9.00
2023-06-11T04:34:15.251Z,9.10
2023-06-11T04:35:16.491Z,9.20
2023-06-11T04:36:15.209Z,9.70
2023-06-11T04:37:15.186Z,8.90
2023-06-11T04:38:15.175Z,9.20
2023-06-11T04:39:15.158Z,9.40
2023-06-11T04:40:15.160Z,9.00
2023-06-11T04:41:15.124Z,8.80
2023-06-11T04:42:15.118Z,9.60
2023-06-11T04:43:15.112Z,9.40
2023-06-11T04:44:15.099Z,9.30
2023-06-11T04:45:15.078Z,8.90
2023-06-11T04:46:15.074Z,9.30
2023-06-11T04:47:15.052Z,8.70
2023-06-11T04:48:15.045Z,9.60
2023-06-11T04:49:15.026Z,9.00
2023-06-11T04:50:15.006Z,9.70
2023-06-11T04:51:14.999Z,9.30
2023-06-11T04:52:14.994Z,9.90
2023-06-11T04:53:14.973Z,9.20
2023-06-11T04:54:14.945Z,9.30
2023-06-11T04:55:14.951Z,9.20
2023-06-11T04:56:14.928Z,9.60
2023-06-11T04:57:14.926Z,9.30
2023-06-11T04:58:14.900Z,9.00
2023-06-11T04:59:14.889Z,9.10
2023-06-11T05:00:14.912Z,9.00
2023-06-11T05:01:14.860Z,9.40
2023-06-11T05:02:14.939Z,8.60
2023-06-11T05:03:14.899Z,8.60
2023-06-11T05:04:14.815Z,8.80
2023-06-11T05:05:15.290Z,9.00
2023-06-11T05:06:14.938Z,9.50
2023-06-11T05:07:14.794Z,9.20
2023-06-11T05:08:14.787Z,8.40
2023-06-11T05:09:14.766Z,8.30
2023-06-11T05:10:14.735Z,8.50
2023-06-11T05:11:14.756Z,8.40
2023-06-11T05:12:14.729Z,9.00
2023-06-11T05:13:14.721Z,8.70
2023-06-11T05:14:14.694Z,8.60
2023-06-11T05:15:14.803Z,8.90
2023-06-11T05:16:14.742Z,8.50
2023-06-11T05:17:14.648Z,8.90
2023-06-11T05:18:14.689Z,9.30
2023-06-11T05:19:14.639Z,9.30
2023-06-11T05:20:14.636Z,9.00
2023-06-11T05:21:14.628Z,8.50
2023-06-11T05:22:14.605Z,8.90
2023-06-11T05:23:14.583Z,9.50
2023-06-11T05:24:14.603Z,8.90
2023-06-11T05:25:14.568Z,8.30
2023-06-11T05:26:14.541Z,9.50
2023-06-11T05:27:14.530Z,9.00
2023-06-11T05:28:14.520Z,9.50
2023-06-11T05:29:14.509Z,8.90
2023-06-11T05:30:14.621Z,9.20
2023-06-11T05:31:14.481Z,11.20
2023-06-11T05:32:14.575Z,9.30
2023-06-11T05:33:14.498Z,9.20
2023-06-11T05:34:14.457Z,8.70
2023-06-11T05:35:14.603Z,8.40
2023-06-11T05:36:14.421Z,8.60
2023-06-11T05:37:14.423Z,9.10
2023-06-11T05:38:14.386Z,9.10
2023-06-11T05:39:14.388Z,8.20
2023-06-11T05:40:14.398Z,8.80
2023-06-11T05:41:14.363Z,9.10
2023-06-11T05:42:14.329Z,7.70
2023-06-11T05:43:14.326Z,8.30
2023-06-11T05:44:14.318Z,8.50
2023-06-11T05:45:14.598Z,8.10
2023-06-11T05:46:14.396Z,9.40
2023-06-11T05:47:14.292Z,8.00
2023-06-11T05:48:14.294Z,8.80
2023-06-11T05:49:14.240Z,9.10
2023-06-11T05:50:14.217Z,12.30
2023-06-11T05:51:14.214Z,8.40
2023-06-11T05:52:14.201Z,7.70
2023-06-11T05:53:14.221Z,8.20
2023-06-11T05:54:14.176Z,8.20
2023-06-11T05:55:14.185Z,7.80
2023-06-11T05:56:14.148Z,8.10
2023-06-11T05:57:14.149Z,7.90
2023-06-11T05:58:14.130Z,8.30
2023-06-11T05:59:14.113Z,8.10
2023-06-11T06:00:14.188Z,8.70
2023-06-11T06:01:14.102Z,11.00
2023-06-11T06:02:14.241Z,8.20
2023-06-11T06:03:14.189Z,8.40
2023-06-11T06:04:14.227Z,8.00
2023-06-11T06:05:14.084Z,8.20
2023-06-11T06:06:14.033Z,8.20
2023-06-11T06:07:14.026Z,8.80
2023-06-11T06:08:13.991Z,7.90
2023-06-11T06:09:13.980Z,7.80
2023-06-11T06:10:13.977Z,9.70
2023-06-11T06:11:13.969Z,7.60
2023-06-11T06:12:13.949Z,7.30
2023-06-11T06:13:13.941Z,7.30
2023-06-11T06:14:13.918Z,9.70
2023-06-11T06:15:13.920Z,9.40
2023-06-11T06:16:14.065Z,7.50
2023-06-11T06:17:13.884Z,9.60
2023-06-11T06:18:13.873Z,7.50
2023-06-11T06:19:13.897Z,8.50
2023-06-11T06:20:13.835Z,7.10
2023-06-11T06:21:13.904Z,7.10
2023-06-11T06:22:13.813Z,6.80
2023-06-11T06:23:13.804Z,7.50
2023-06-11T06:24:13.822Z,7.40
2023-06-11T06:25:14.032Z,7.10
2023-06-11T06:26:13.789Z,7.40
2023-06-11T06:27:13.770Z,8.20
2023-06-11T06:28:13.834Z,7.80
2023-06-11T06:29:13.761Z,7.50
2023-06-11T06:30:13.708Z,6.90
2023-06-11T06:31:13.845Z,7.00
2023-06-11T06:32:13.692Z,7.40
2023-06-11T06:33:13.752Z,7.20
2023-06-11T06:34:13.660Z,7.00
2023-06-11T06:35:13.930Z,7.10
2023-06-11T06:36:13.641Z,8.00
2023-06-11T06:37:13.631Z,7.50
2023-06-11T06:38:13.617Z,8.90
2023-06-11T06:39:13.641Z,8.70
2023-06-11T06:40:13.849Z,9.40
2023-06-11T06:41:13.580Z,8.60
2023-06-11T06:42:13.564Z,7.40
2023-06-11T06:43:13.555Z,7.70
2023-06-11T06:44:13.559Z,6.70
2023-06-11T06:45:13.749Z,9.70
2023-06-11T06:46:13.532Z,7.00
2023-06-11T06:47:13.498Z,6.80
2023-06-11T06:48:13.672Z,7.20
2023-06-11T06:49:13.489Z,6.60
2023-06-11T06:50:13.723Z,7.40
2023-06-11T06:51:13.446Z,7.40
2023-06-11T06:52:13.426Z,7.00
2023-06-11T06:53:13.422Z,7.10
2023-06-11T06:54:13.432Z,7.20
2023-06-11T06:55:13.413Z,6.70
2023-06-11T06:56:13.385Z,8.10
2023-06-11T06:57:13.406Z,7.00
2023-06-11T06:58:13.374Z,6.80
2023-06-11T06:59:13.366Z,12.10
2023-06-11T07:00:13.632Z,7.00
2023-06-11T07:01:13.379Z,6.70
2023-06-11T07:02:13.305Z,14.00
2023-06-11T07:03:13.360Z,13.50
2023-06-11T07:04:13.304Z,11.00
2023-06-11T07:05:13.318Z,11.20
2023-06-11T07:06:13.331Z,9.10
2023-06-11T07:07:13.252Z,7.30
2023-06-11T07:08:13.270Z,8.40
2023-06-11T07:09:13.227Z,8.50
2023-06-11T07:10:13.678Z,6.60
2023-06-11T07:11:13.194Z,8.90
2023-06-11T07:12:13.174Z,6.80
2023-06-11T07:13:13.170Z,8.00
2023-06-11T07:14:13.149Z,7.50
2023-06-11T07:15:13.164Z,6.80
2023-06-11T07:16:13.186Z,7.60
2023-06-11T07:17:13.137Z,8.00
2023-06-11T07:18:13.116Z,6.20
2023-06-11T07:19:13.090Z,8.20
2023-06-11T07:20:13.419Z,10.10
2023-06-11T07:21:13.071Z,7.30
2023-06-11T07:22:13.097Z,6.10
2023-06-11T07:23:13.056Z,6.50
2023-06-11T07:24:13.064Z,6.20
2023-06-11T07:25:13.021Z,5.80
2023-06-11T07:26:13.007Z,6.90
2023-06-11T07:27:13.014Z,6.70
2023-06-11T07:28:12.993Z,7.20
2023-06-11T07:29:13.225Z,6.50
2023-06-11T07:30:13.300Z,6.90
2023-06-11T07:31:13.067Z,6.60
2023-06-11T07:32:12.953Z,6.80
2023-06-11T07:33:12.974Z,6.60
2023-06-11T07:34:12.922Z,6.80
2023-06-11T07:35:12.893Z,6.40
2023-06-11T07:36:12.909Z,7.40
2023-06-11T07:37:12.871Z,6.10
2023-06-11T07:38:12.842Z,6.80
2023-06-11T07:39:12.859Z,6.50
2023-06-11T07:40:13.089Z,5.60
2023-06-11T07:41:12.836Z,5.90
2023-06-11T07:42:12.813Z,8.20
2023-06-11T07:43:12.815Z,9.00
2023-06-11T07:44:12.775Z,8.60
2023-06-11T07:45:12.776Z,6.10
2023-06-11T07:46:12.810Z,6.40
2023-06-11T07:47:12.733Z,6.10
2023-06-11T07:48:12.745Z,6.00
2023-06-11T07:49:12.708Z,6.70
2023-06-11T07:50:12.970Z,6.70
2023-06-11T07:51:12.677Z,6.30
2023-06-11T07:52:12.674Z,5.60
2023-06-11T07:53:12.664Z,8.00
2023-06-11T07:54:12.651Z,5.50
2023-06-11T07:55:12.636Z,6.10
2023-06-11T07:56:12.648Z,7.60
2023-06-11T07:57:12.598Z,6.20
2023-06-11T07:58:12.605Z,5.70
2023-06-11T07:59:12.612Z,11.70
2023-06-11T08:00:12.859Z,6.70
2023-06-11T08:01:12.553Z,5.80
2023-06-11T08:02:12.699Z,6.60
2023-06-11T08:03:12.572Z,11.80
2023-06-11T08:04:12.553Z,5.80
2023-06-11T08:05:12.512Z,6.40
2023-06-11T08:06:12.626Z,5.70
2023-06-11T08:07:12.495Z,5.50
2023-06-11T08:08:12.474Z,6.50
2023-06-11T08:09:12.489Z,6.00
2023-06-11T08:10:12.680Z,4.90
2023-06-11T08:11:12.421Z,9.70
2023-06-11T08:12:12.409Z,7.40
2023-06-11T08:13:12.420Z,9.00
2023-06-11T08:14:12.413Z,7.00
2023-06-11T08:15:12.389Z,10.70
2023-06-11T08:16:12.431Z,8.40
2023-06-11T08:17:12.340Z,6.20
2023-06-11T08:18:12.357Z,5.00
2023-06-11T08:19:12.308Z,5.20
2023-06-11T08:20:12.607Z,5.50
2023-06-11T08:21:12.286Z,4.80
2023-06-11T08:22:12.278Z,5.20
2023-06-11T08:23:12.280Z,6.00
2023-06-11T08:24:12.324Z,5.10
2023-06-11T08:25:12.221Z,8.70
2023-06-11T08:26:12.240Z,7.60
2023-06-11T08:27:12.214Z,6.50
2023-06-11T08:28:12.221Z,5.00
2023-06-11T08:29:12.217Z,5.00
2023-06-11T08:30:12.512Z,6.10
2023-06-11T08:31:12.163Z,9.20
2023-06-11T08:32:12.302Z,5.10
2023-06-11T08:33:12.182Z,5.40
2023-06-11T08:34:12.133Z,5.10
2023-06-11T08:35:12.116Z,7.40
2023-06-11T08:36:12.163Z,6.80
2023-06-11T08:37:12.089Z,4.60
2023-06-11T08:38:12.063Z,5.40
2023-06-11T08:39:12.037Z,6.20
2023-06-11T08:40:12.248Z,6.20
2023-06-11T08:41:12.017Z,6.10
2023-06-11T08:42:12.033Z,8.00
2023-06-11T08:43:11.999Z,4.80
2023-06-11T08:44:11.980Z,5.60
2023-06-11T08:45:11.964Z,4.00
2023-06-11T08:46:11.980Z,4.60
2023-06-11T08:47:11.947Z,5.80
2023-06-11T08:48:11.983Z,10.40
2023-06-11T08:49:11.906Z,4.30
2023-06-11T08:50:12.318Z,5.00
2023-06-11T08:51:11.887Z,4.20
2023-06-11T08:52:11.881Z,4.40
2023-06-11T08:53:11.878Z,4.80
2023-06-11T08:54:11.862Z,5.10
2023-06-11T08:55:12.059Z,6.60
2023-06-11T08:56:11.830Z,4.10
2023-06-11T08:57:11.896Z,5.40
2023-06-11T08:58:11.802Z,6.30
2023-06-11T08:59:11.793Z,7.40
2023-06-11T09:00:12.205Z,10.60
2023-06-11T09:01:11.776Z,4.60
2023-06-11T09:02:11.787Z,3.90
2023-06-11T09:03:11.750Z,4.50
2023-06-11T09:04:11.754Z,4.40
2023-06-11T09:05:11.722Z,6.50
2023-06-11T09:06:11.707Z,6.20
2023-06-11T09:07:11.677Z,5.00
2023-06-11T09:08:11.681Z,5.90
2023-06-11T09:09:11.676Z,4.00
2023-06-11T09:10:12.297Z,4.10
2023-06-11T09:11:11.632Z,5.30
2023-06-11T09:12:11.625Z,5.60
2023-06-11T09:13:11.605Z,8.20
2023-06-11T09:14:11.620Z,8.70
2023-06-11T09:15:11.582Z,6.60
2023-06-11T09:16:11.642Z,4.70
2023-06-11T09:17:11.562Z,6.00
2023-06-11T09:18:11.603Z,7.50
2023-06-11T09:19:11.540Z,5.70
2023-06-11T09:20:11.845Z,7.00
2023-06-11T09:21:11.507Z,6.20
2023-06-11T09:22:11.487Z,6.20
2023-06-11T09:23:11.500Z,5.40
2023-06-11T09:24:11.643Z,4.30
2023-06-11T09:25:12.043Z,5.10
2023-06-11T09:26:11.445Z,3.50
2023-06-11T09:27:11.420Z,5.10
2023-06-11T09:28:11.430Z,3.80
2023-06-11T09:29:11.414Z,6.10
2023-06-11T09:30:11.585Z,3.90
2023-06-11T09:31:11.389Z,5.90
2023-06-11T09:32:32.056Z,5.40
2023-06-11T09:33:12.375Z,5.20
2023-06-11T09:34:11.376Z,4.30
2023-06-11T09:35:11.345Z,8.90
2023-06-11T09:36:11.363Z,5.60
2023-06-11T09:37:11.310Z,5.40
2023-06-11T09:38:11.296Z,6.00
2023-06-11T09:39:11.300Z,3.40
2023-06-11T09:40:11.444Z,3.10
2023-06-11T09:41:11.242Z,5.30
2023-06-11T09:42:11.241Z,4.90
2023-06-11T09:43:11.233Z,6.30
2023-06-11T09:44:11.231Z,3.50
2023-06-11T09:45:11.197Z,7.60
2023-06-11T09:46:11.220Z,4.70
2023-06-11T09:47:11.196Z,3.60
2023-06-11T10:03:44.628Z,5.90
2023-06-11T10:04:44.566Z,5.50
2023-06-11T10:05:44.537Z,4.40
2023-06-11T10:06:44.526Z,3.80
2023-06-11T10:07:44.496Z,5.40
2023-06-11T10:08:44.470Z,4.10
2023-06-11T10:09:44.487Z,3.40
2023-06-11T10:10:44.484Z,7.90
2023-06-11T10:11:44.494Z,4.10
2023-06-11T10:12:44.428Z,2.90
2023-06-11T10:13:44.428Z,2.90
2023-06-11T10:14:44.436Z,4.70
2023-06-11T10:15:44.442Z,5.50
2023-06-11T10:16:44.365Z,2.90
2023-06-11T10:17:44.415Z,5.50
2023-06-11T10:18:44.394Z,3.90
2023-06-11T10:19:44.354Z,4.20
2023-06-11T10:20:44.344Z,4.70
2023-06-11T10:21:44.322Z,3.30
2023-06-11T10:22:44.316Z,4.80
2023-06-11T10:23:51.344Z,5.70
2023-06-11T10:24:44.298Z,5.20
2023-06-11T10:25:51.782Z,3.80
2023-06-11T10:26:51.307Z,4.10
2023-06-11T10:27:44.235Z,7.70
2023-06-11T10:28:44.253Z,3.70
2023-06-11T10:29:51.253Z,3.10
2023-06-11T10:30:44.213Z,2.90
2023-06-11T10:31:44.191Z,2.90
2023-06-11T10:32:44.206Z,3.10
2023-06-11T10:33:44.212Z,3.20
2023-06-11T10:34:44.260Z,3.20
2023-06-11T10:35:44.160Z,3.50
2023-06-11T10:36:51.131Z,5.80
2023-06-11T10:37:44.109Z,5.10
2023-06-11T10:38:44.127Z,5.70
2023-06-11T10:39:51.098Z,4.90
2023-06-11T10:40:44.061Z,4.50
2023-06-11T10:41:51.064Z,8.80
2023-06-11T10:42:44.041Z,5.50
2023-06-11T10:43:44.033Z,3.50
2023-06-11T10:44:44.027Z,5.50
2023-06-11T10:45:45.488Z,5.20
2023-06-11T10:46:44.150Z,4.80
2023-06-11T10:47:44.095Z,5.60
2023-06-11T10:48:43.985Z,4.40
2023-06-11T10:49:43.956Z,5.50
2023-06-11T10:50:43.945Z,4.50
2023-06-11T10:51:43.953Z,5.10
2023-06-11T10:52:43.929Z,13.10
2023-06-11T10:53:43.909Z,5.70
2023-06-11T10:54:43.904Z,8.50
2023-06-11T10:55:43.941Z,7.10
2023-06-11T10:56:43.871Z,5.80
2023-06-11T10:57:43.882Z,6.00
2023-06-11T10:58:43.847Z,3.20
2023-06-11T10:59:43.846Z,5.70
2023-06-11T11:00:43.874Z,3.30
2023-06-11T11:01:43.853Z,3.50
2023-06-11T11:02:43.843Z,4.40
2023-06-11T11:03:43.842Z,3.40
2023-06-11T11:04:43.770Z,5.80
2023-06-11T11:05:43.757Z,4.20
2023-06-11T11:06:43.761Z,4.00
2023-06-11T11:07:43.742Z,3.40
2023-06-11T11:08:43.716Z,4.10
2023-06-11T11:09:43.705Z,4.10
2023-06-11T11:10:43.693Z,3.90
2023-06-11T11:11:43.693Z,3.50
2023-06-11T11:12:43.657Z,4.60
2023-06-11T11:13:43.651Z,3.50
2023-06-11T11:14:43.666Z,3.00
2023-06-11T11:15:43.640Z,4.80
2023-06-11T11:16:43.633Z,4.60
2023-06-11T11:17:43.638Z,7.90
2023-06-11T11:18:43.586Z,3.70
2023-06-11T11:19:43.572Z,3.80
2023-06-11T11:20:43.563Z,4.00
2023-06-11T11:21:43.560Z,5.10
2023-06-11T11:22:43.542Z,3.00
2023-06-11T11:23:43.552Z,3.10
2023-06-11T11:24:43.543Z,4.40
2023-06-11T11:25:43.568Z,3.20
2023-06-11T11:26:43.525Z,3.40
2023-06-11T11:27:43.471Z,3.10
2023-06-11T11:28:43.462Z,3.60
2023-06-11T11:29:43.453Z,4.00
2023-06-11T11:30:43.435Z,3.20
2023-06-11T11:31:43.460Z,5.40
2023-06-11T11:32:43.464Z,3.20
2023-06-11T11:33:43.392Z,5.60
2023-06-11T11:34:43.458Z,2.70
2023-06-11T11:35:43.362Z,3.90
2023-06-11T11:36:43.364Z,3.30
2023-06-11T11:37:43.413Z,5.40
2023-06-11T11:38:43.339Z,7.60
2023-06-11T11:39:43.327Z,3.60
2023-06-11T11:40:43.319Z,3.40
2023-06-11T11:41:43.310Z,4.90
2023-06-11T11:42:43.281Z,3.20
2023-06-11T11:43:43.277Z,3.90
2023-06-11T11:44:43.257Z,4.40
2023-06-11T11:45:43.244Z,3.20
2023-06-11T11:46:43.456Z,5.80
2023-06-11T11:47:43.280Z,5.20
2023-06-11T11:48:43.198Z,4.30
2023-06-11T11:49:43.180Z,3.60
2023-06-11T11:50:43.169Z,3.00
2023-06-11T11:51:43.158Z,4.20
2023-06-11T11:52:43.182Z,3.30
2023-06-11T11:53:43.148Z,3.80
2023-06-11T11:54:43.114Z,4.20
2023-06-11T11:55:52.369Z,3.80
2023-06-11T11:56:44.184Z,3.80
2023-06-11T11:57:43.100Z,3.40
2023-06-11T11:58:43.125Z,2.80
2023-06-11T11:59:43.053Z,4.10
2023-06-11T12:00:43.044Z,4.00
2023-06-11T12:01:43.028Z,4.80
2023-06-11T12:02:43.112Z,6.60
2023-06-11T12:03:43.264Z,5.10
2023-06-11T12:04:42.981Z,4.70
2023-06-11T12:05:42.986Z,5.20
2023-06-11T12:06:42.951Z,6.50
2023-06-11T12:07:42.956Z,4.30
2023-06-11T12:08:42.929Z,3.50
2023-06-11T12:09:42.914Z,3.20
2023-06-11T12:10:42.899Z,3.60
2023-06-11T12:11:56.076Z,3.80
2023-06-11T12:12:43.876Z,3.20
2023-06-11T12:13:42.855Z,3.90
2023-06-11T12:14:42.852Z,3.20
2023-06-11T12:15:42.841Z,2.90
2023-06-11T12:16:42.896Z,4.00
2023-06-11T12:17:42.930Z,3.10
2023-06-11T12:18:42.811Z,4.90
2023-06-11T12:19:42.785Z,3.30
2023-06-11T12:20:42.762Z,3.10
2023-06-11T12:21:42.771Z,3.60
2023-06-11T12:22:42.756Z,6.20
2023-06-11T12:23:42.742Z,4.40
2023-06-11T12:24:42.791Z,3.10
2023-06-11T12:25:42.722Z,3.50
2023-06-11T12:26:42.725Z,3.90
2023-06-11T12:27:42.714Z,5.30
2023-06-11T12:28:42.698Z,5.00
2023-06-11T12:29:42.645Z,3.10
2023-06-11T12:30:42.652Z,3.50
2023-06-11T12:31:42.663Z,3.20
2023-06-11T12:32:42.703Z,4.50
2023-06-11T12:33:42.616Z,5.60
2023-06-11T12:34:42.585Z,3.30
2023-06-11T12:35:42.578Z,4.50
2023-06-11T12:36:42.548Z,3.40
2023-06-11T12:37:42.553Z,2.90
2023-06-11T12:38:42.545Z,6.30
2023-06-11T12:39:42.512Z,3.90
2023-06-11T12:40:42.514Z,4.40
2023-06-11T12:41:42.495Z,4.30
2023-06-11T12:42:42.479Z,5.40
2023-06-11T12:43:42.468Z,2.80
2023-06-11T12:44:42.456Z,5.10
2023-06-11T12:45:42.519Z,3.20
2023-06-11T12:46:42.446Z,3.00
2023-06-11T12:47:42.459Z,5.20
2023-06-11T12:48:42.409Z,3.50
2023-06-11T12:49:42.405Z,3.40
2023-06-11T12:50:42.383Z,3.20
2023-06-11T12:51:42.355Z,4.10
2023-06-11T12:52:42.352Z,3.80
2023-06-11T12:53:42.352Z,4.60
2023-06-11T12:54:42.316Z,4.00
2023-06-11T12:55:42.300Z,6.00
2023-06-11T12:56:42.312Z,3.20
2023-06-11T12:57:42.296Z,5.90
2023-06-11T12:58:42.268Z,4.10
2023-06-11T12:59:42.269Z,3.00
2023-06-11T13:00:42.244Z,3.00
2023-06-11T13:01:42.282Z,4.60
2023-06-11T13:02:42.279Z,3.40
2023-06-11T13:03:42.205Z,5.20
2023-06-11T13:04:42.224Z,2.90
2023-06-11T13:05:42.158Z,4.20
2023-06-11T13:06:42.155Z,3.30
2023-06-11T13:07:42.133Z,2.60
2023-06-11T13:08:42.146Z,4.00
2023-06-11T13:09:42.109Z,3.40
2023-06-11T13:10:42.115Z,4.00
2023-06-11T13:11:42.082Z,3.00
2023-06-11T13:12:42.091Z,4.20
2023-06-11T13:13:42.095Z,4.60
2023-06-11T13:14:42.042Z,3.00
2023-06-11T13:15:42.083Z,4.60
2023-06-11T13:16:42.069Z,3.60
2023-06-11T13:17:42.049Z,3.00
2023-06-11T13:18:41.995Z,3.00
2023-06-11T13:19:41.990Z,2.70
2023-06-11T13:20:41.963Z,3.70
2023-06-11T13:21:41.971Z,4.40
2023-06-11T13:22:41.966Z,3.10
2023-06-11T13:23:41.971Z,5.00
2023-06-11T13:24:41.915Z,3.20
2023-06-11T13:25:41.953Z,2.80
2023-06-11T13:26:41.906Z,2.80
2023-06-11T13:27:41.882Z,3.00
2023-06-11T13:28:41.906Z,2.60
2023-06-11T13:29:41.880Z,3.50
2023-06-11T13:30:41.832Z,4.70
2023-06-11T13:31:41.898Z,4.10
2023-06-11T13:32:41.855Z,5.10
2023-06-11T13:33:41.806Z,3.80
2023-06-11T13:34:41.833Z,2.70
2023-06-11T13:35:41.773Z,2.60
2023-06-11T13:36:41.778Z,3.40
2023-06-11T13:37:41.772Z,2.90
2023-06-11T13:38:41.755Z,3.00
2023-06-11T13:39:41.754Z,2.70
2023-06-11T13:40:41.734Z,3.70
2023-06-11T13:41:41.729Z,3.20
2023-06-11T13:42:41.766Z,2.60
2023-06-11T13:43:41.685Z,3.00
2023-06-11T13:44:41.697Z,2.60
2023-06-11T13:45:41.671Z,2.60